LFPG 240500Z 27006KT 9999 BKN020 11/10 Q1028 NOSIG

ElémentsDécodage
LFPG Station météo située sur l'aérodrome de PARIS Charles-de-Gaulle
240500Z émis le 24 du mois à 05h00 UTC
27006KT vent du 270°, 06 noeuds
9999 visibilité horizontale supérieure à 10 Km
BKN020 nuages morcelés (5/8 à 7/8) à 2000 pieds
11/10 température 11°C, point de rosée 10°C
 soit une humidité relative de 94%
Q1028 la pression au niveau de la mer (QNH) est de 1028 hPa
NOSIG Pas de changement significatif prévu au cours des deux heures suivant l'heure de l'observation